Time;durP1;ratioP1;P1;durP2;ratioP2;P2;SDS_P1;SDS_P2;PMS_P1;PMS_P2;Temp;Humidity;BMP_temperature;BMP_pressure;BME280_temperature;BME280_humidity;BME280_pressure;Samples;Min_cycle;Max_cycle;Signal;HPM_P1;HPM_P2
2021/05/25 00:02:23;;;;;;;1.23;1.23;;;;;;;;;;4952244;28;20499;-76
2021/05/25 00:04:49;;;;;;;1.93;1.67;;;;;;;;;;4960921;28;20817;-76
2021/05/25 00:07:15;;;;;;;1.60;1.50;;;;;;;;;;4956215;28;20484;-74
2021/05/25 00:09:42;;;;;;;3.20;1.47;;;;;;;;;;4964471;28;20979;-76
2021/05/25 00:12:08;;;;;;;2.40;1.87;;;;;;;;;;4958024;28;20488;-75
2021/05/25 00:14:34;;;;;;;1.47;1.40;;;;;;;;;;4946968;28;21083;-77
2021/05/25 00:17:00;;;;;;;1.40;1.30;;;;;;;;;;4941445;28;20441;-75
2021/05/25 00:19:26;;;;;;;0.83;0.83;;;;;;;;;;4940524;28;20442;-76
2021/05/25 00:21:52;;;;;;;1.10;1.00;;;;;;;;;;4965010;28;20514;-76
2021/05/25 00:24:18;;;;;;;0.97;0.83;;;;;;;;;;4958857;28;20438;-77
2021/05/25 00:26:44;;;;;;;7.47;0.90;;;;;;;;;;4973194;28;20444;-77
2021/05/25 00:29:10;;;;;;;0.93;0.93;;;;;;;;;;4960951;28;20481;-77
2021/05/25 00:31:36;;;;;;;1.30;1.20;;;;;;;;;;4962068;28;20496;-77
2021/05/25 00:34:03;;;;;;;0.83;0.83;;;;;;;;;;4979900;28;20527;-76
2021/05/25 00:36:29;;;;;;;1.40;1.30;;;;;;;;;;4967288;28;20978;-77
2021/05/25 00:38:55;;;;;;;1.40;1.30;;;;;;;;;;4975859;28;20442;-76
2021/05/25 00:41:21;;;;;;;1.60;1.50;;;;;;;;;;4966355;28;20544;-75
2021/05/25 00:43:47;;;;;;;1.73;1.63;;;;;;;;;;4957504;28;20516;-76
2021/05/25 00:46:14;;;;;;;2.30;1.73;;;;;;;;;;4963927;28;20552;-77
2021/05/25 00:48:40;;;;;;;2.30;1.73;;;;;;;;;;4974772;28;20480;-75
2021/05/25 00:51:06;;;;;;;1.73;1.43;;;;;;;;;;4955861;28;20473;-76
2021/05/25 00:53:32;;;;;;;1.70;1.60;;;;;;;;;;4963359;28;20488;-76
2021/05/25 00:55:58;;;;;;;2.53;1.60;;;;;;;;;;4976131;28;21028;-77
2021/05/25 00:58:24;;;;;;;1.70;1.60;;;;;;;;;;4968662;28;21018;-77
2021/05/25 01:00:51;;;;;;;1.20;1.17;;;;;;;;;;4980184;28;20841;-77
2021/05/25 01:03:21;;;;;;;1.40;1.30;;;;;;;;;;4984605;28;20940;-76
2021/05/25 01:05:48;;;;;;;0.90;0.90;;;;;;;;;;4963336;28;20438;-76
2021/05/25 01:08:14;;;;;;;2.50;2.30;;;;;;;;;;4963046;28;20473;-76
2021/05/25 01:10:45;;;;;;;1.43;1.30;;;;;;;;;;4963674;28;20504;-75
2021/05/25 01:13:22;;;;;;;1.80;1.60;;;;;;;;;;4967336;28;20464;-77
2021/05/25 01:15:49;;;;;;;0.93;0.90;;;;;;;;;;4964248;28;20447;-77
2021/05/25 01:18:15;;;;;;;0.70;0.70;;;;;;;;;;4979666;28;20567;-76
2021/05/25 01:20:42;;;;;;;0.87;0.60;;;;;;;;;;4963662;28;20894;-76
2021/05/25 01:23:09;;;;;;;0.60;0.60;;;;;;;;;;4971768;28;20445;-75
2021/05/25 01:25:35;;;;;;;0.50;0.50;;;;;;;;;;4966681;28;20973;-75
2021/05/25 01:28:03;;;;;;;0.50;0.50;;;;;;;;;;4963208;28;20469;-76
2021/05/25 01:30:30;;;;;;;0.60;0.60;;;;;;;;;;4961964;28;20463;-75
2021/05/25 01:32:56;;;;;;;1.23;1.00;;;;;;;;;;4962265;28;20445;-75
2021/05/25 01:35:24;;;;;;;3.20;0.87;;;;;;;;;;4977494;28;20438;-75
2021/05/25 01:37:51;;;;;;;0.50;0.50;;;;;;;;;;4964907;28;20449;-76
2021/05/25 01:40:17;;;;;;;0.53;0.53;;;;;;;;;;4958215;28;20459;-76
2021/05/25 01:42:43;;;;;;;0.53;0.53;;;;;;;;;;4962764;28;20444;-75
2021/05/25 01:45:14;;;;;;;1.80;0.53;;;;;;;;;;4977914;28;20445;-76
2021/05/25 01:47:40;;;;;;;0.50;0.50;;;;;;;;;;4955515;28;20461;-76
2021/05/25 01:50:14;;;;;;;0.50;0.50;;;;;;;;;;4960501;28;21860;-76
2021/05/25 01:52:54;;;;;;;0.40;0.40;;;;;;;;;;4972661;28;20433;-76
2021/05/25 01:55:25;;;;;;;0.73;0.73;;;;;;;;;;4961965;28;20453;-76
2021/05/25 01:57:51;;;;;;;0.50;0.50;;;;;;;;;;4986591;28;20437;-75
2021/05/25 02:00:17;;;;;;;0.50;0.50;;;;;;;;;;4985557;28;20837;-76
2021/05/25 02:02:43;;;;;;;0.40;0.40;;;;;;;;;;4957842;28;20444;-76
2021/05/25 02:05:09;;;;;;;0.50;0.50;;;;;;;;;;4973317;28;20441;-76
2021/05/25 02:07:35;;;;;;;0.50;0.50;;;;;;;;;;4972115;28;20473;-76
2021/05/25 02:10:01;;;;;;;0.60;0.57;;;;;;;;;;4970589;28;20472;-77
2021/05/25 02:12:27;;;;;;;0.73;0.50;;;;;;;;;;4979660;28;20847;-77
2021/05/25 02:14:53;;;;;;;0.50;0.50;;;;;;;;;;4960816;28;20457;-76
2021/05/25 02:17:21;;;;;;;0.60;0.60;;;;;;;;;;4958101;28;20484;-76
2021/05/25 02:19:46;;;;;;;0.60;0.60;;;;;;;;;;4965883;28;20450;-76
2021/05/25 02:22:12;;;;;;;0.50;0.50;;;;;;;;;;4979912;28;20477;-76
2021/05/25 02:24:38;;;;;;;0.50;0.50;;;;;;;;;;4973766;28;20932;-77
2021/05/25 02:27:05;;;;;;;0.60;0.60;;;;;;;;;;4978980;28;20441;-77
2021/05/25 02:29:31;;;;;;;0.97;0.70;;;;;;;;;;4975111;28;20437;-77
2021/05/25 02:31:57;;;;;;;0.60;0.60;;;;;;;;;;4955688;28;20513;-76
2021/05/25 02:34:23;;;;;;;0.50;0.50;;;;;;;;;;4953965;28;20577;-76
2021/05/25 02:36:49;;;;;;;0.80;0.60;;;;;;;;;;4965456;28;20440;-76
2021/05/25 02:39:15;;;;;;;1.03;0.97;;;;;;;;;;4961121;28;20441;-76
2021/05/25 02:41:41;;;;;;;0.70;0.70;;;;;;;;;;4975935;28;20460;-76
2021/05/25 02:44:07;;;;;;;0.70;0.70;;;;;;;;;;4971923;28;20818;-76
2021/05/25 02:46:33;;;;;;;0.70;0.70;;;;;;;;;;4962912;28;20819;-77
2021/05/25 02:48:59;;;;;;;1.23;1.00;;;;;;;;;;4956159;28;20473;-76
2021/05/25 02:51:25;;;;;;;1.00;0.90;;;;;;;;;;4978638;28;20469;-77
2021/05/25 02:53:51;;;;;;;1.10;1.00;;;;;;;;;;4974409;28;20451;-76
2021/05/25 02:56:17;;;;;;;1.23;1.10;;;;;;;;;;4964243;28;20445;-76
2021/05/25 02:58:43;;;;;;;0.87;0.87;;;;;;;;;;4963102;28;20449;-76
2021/05/25 03:01:09;;;;;;;2.37;0.77;;;;;;;;;;4968179;28;20458;-75
2021/05/25 03:03:35;;;;;;;0.70;0.70;;;;;;;;;;4961143;28;20443;-74
2021/05/25 03:06:01;;;;;;;1.53;1.10;;;;;;;;;;4963501;28;20964;-76
2021/05/25 03:08:27;;;;;;;2.00;0.90;;;;;;;;;;4955938;28;20484;-77
2021/05/25 03:10:53;;;;;;;2.37;1.17;;;;;;;;;;4976583;28;20959;-76
2021/05/25 03:13:19;;;;;;;1.40;1.30;;;;;;;;;;4973867;28;20469;-76
2021/05/25 03:15:47;;;;;;;1.37;1.27;;;;;;;;;;4980241;28;20491;-77
2021/05/25 03:18:13;;;;;;;0.80;0.80;;;;;;;;;;4958394;28;20453;-77
2021/05/25 03:20:39;;;;;;;0.83;0.83;;;;;;;;;;4961387;28;20458;-77
2021/05/25 03:23:06;;;;;;;0.93;0.90;;;;;;;;;;4968557;28;20461;-77
2021/05/25 03:25:32;;;;;;;3.37;1.70;;;;;;;;;;4966525;28;20450;-76
2021/05/25 03:27:58;;;;;;;1.70;1.10;;;;;;;;;;4962337;28;20852;-77
2021/05/25 03:30:25;;;;;;;1.07;0.90;;;;;;;;;;4954058;28;20466;-76
2021/05/25 03:32:52;;;;;;;1.13;1.03;;;;;;;;;;4972177;28;20549;-76
2021/05/25 03:35:18;;;;;;;1.33;1.17;;;;;;;;;;4967691;28;20532;-77
2021/05/25 03:37:45;;;;;;;1.23;0.97;;;;;;;;;;4984703;28;20445;-77
2021/05/25 03:40:12;;;;;;;1.70;1.03;;;;;;;;;;4975689;28;20491;-77
2021/05/25 03:42:38;;;;;;;1.43;1.37;;;;;;;;;;4972730;28;20495;-77
2021/05/25 03:45:05;;;;;;;2.37;1.10;;;;;;;;;;4974659;28;20442;-76
2021/05/25 03:47:31;;;;;;;1.17;1.17;;;;;;;;;;4959920;28;20492;-77
2021/05/25 03:50:07;;;;;;;2.07;1.70;;;;;;;;;;4975960;28;20477;-77
2021/05/25 03:52:33;;;;;;;3.77;1.67;;;;;;;;;;4969964;28;20943;-77
2021/05/25 03:55:01;;;;;;;1.80;1.53;;;;;;;;;;4954563;28;20537;-76
2021/05/25 03:59:52;;;;;;;2.03;1.60;;;;;;;;;;4972670;28;20830;-76
2021/05/25 04:02:18;;;;;;;0.80;0.80;;;;;;;;;;4974826;28;20437;-77
2021/05/25 04:04:44;;;;;;;1.13;1.03;;;;;;;;;;4979619;28;20440;-76
2021/05/25 04:07:10;;;;;;;0.80;0.80;;;;;;;;;;4954852;28;21221;-76
2021/05/25 04:09:36;;;;;;;0.50;0.50;;;;;;;;;;4965429;28;20445;-77
2021/05/25 04:12:03;;;;;;;0.67;0.50;;;;;;;;;;4963773;28;20811;-77
2021/05/25 04:14:29;;;;;;;0.40;0.40;;;;;;;;;;4982170;28;20443;-77
2021/05/25 04:16:55;;;;;;;0.80;0.80;;;;;;;;;;4986195;28;20441;-76
2021/05/25 04:19:21;;;;;;;0.77;0.77;;;;;;;;;;4975770;28;20529;-75
2021/05/25 04:21:48;;;;;;;0.40;0.40;;;;;;;;;;4971918;28;20533;-76
2021/05/25 04:24:14;;;;;;;0.40;0.40;;;;;;;;;;4962483;28;20483;-77
2021/05/25 04:26:40;;;;;;;0.57;0.50;;;;;;;;;;4977843;28;20441;-76
2021/05/25 04:29:06;;;;;;;0.40;0.40;;;;;;;;;;4976985;28;20473;-76
2021/05/25 04:31:32;;;;;;;0.50;0.50;;;;;;;;;;4985396;28;20465;-76
2021/05/25 04:33:58;;;;;;;1.00;0.80;;;;;;;;;;4967912;28;20448;-76
2021/05/25 04:36:24;;;;;;;0.40;0.40;;;;;;;;;;4980738;28;20429;-77
2021/05/25 04:38:50;;;;;;;1.90;0.40;;;;;;;;;;4981268;28;20794;-76
2021/05/25 04:41:17;;;;;;;0.50;0.50;;;;;;;;;;4977459;28;20460;-76
2021/05/25 04:43:43;;;;;;;0.30;0.30;;;;;;;;;;4958500;28;20437;-76
2021/05/25 04:46:09;;;;;;;0.50;0.50;;;;;;;;;;4965594;28;20452;-76
2021/05/25 04:48:35;;;;;;;0.87;0.47;;;;;;;;;;4979672;28;20551;-76
2021/05/25 04:51:01;;;;;;;0.40;0.40;;;;;;;;;;4976842;28;20576;-76
2021/05/25 04:53:27;;;;;;;0.40;0.40;;;;;;;;;;4960336;28;20432;-75
2021/05/25 04:55:53;;;;;;;0.40;0.40;;;;;;;;;;4974577;28;20426;-75
2021/05/25 04:58:19;;;;;;;0.40;0.40;;;;;;;;;;4965895;28;20499;-76
2021/05/25 05:00:45;;;;;;;0.40;0.40;;;;;;;;;;4977158;28;20489;-76
2021/05/25 05:03:11;;;;;;;0.60;0.60;;;;;;;;;;4981801;28;20440;-76
2021/05/25 05:05:37;;;;;;;0.93;0.60;;;;;;;;;;4961495;28;20452;-78
2021/05/25 05:08:07;;;;;;;0.50;0.50;;;;;;;;;;4963570;28;20456;-73
2021/05/25 05:10:33;;;;;;;0.40;0.40;;;;;;;;;;4975450;28;20492;-76
2021/05/25 05:12:59;;;;;;;0.40;0.40;;;;;;;;;;4976437;28;20441;-76
2021/05/25 05:15:25;;;;;;;0.40;0.40;;;;;;;;;;4964173;28;21122;-76
2021/05/25 05:17:51;;;;;;;0.40;0.40;;;;;;;;;;4982106;28;20487;-75
2021/05/25 05:20:17;;;;;;;0.50;0.50;;;;;;;;;;4975326;28;20461;-76
2021/05/25 05:22:44;;;;;;;1.53;0.50;;;;;;;;;;4986547;28;20519;-75
2021/05/25 05:25:11;;;;;;;0.40;0.40;;;;;;;;;;4975108;28;20482;-76
2021/05/25 05:27:37;;;;;;;0.53;0.53;;;;;;;;;;4972541;28;20488;-76
2021/05/25 05:30:04;;;;;;;0.30;0.30;;;;;;;;;;4955782;28;20468;-76
2021/05/25 05:32:30;;;;;;;0.40;0.40;;;;;;;;;;4977463;28;20808;-76
2021/05/25 05:34:56;;;;;;;0.33;0.33;;;;;;;;;;4985120;28;20519;-76
2021/05/25 05:37:22;;;;;;;1.43;0.80;;;;;;;;;;4964849;28;20535;-76
2021/05/25 05:39:48;;;;;;;0.47;0.47;;;;;;;;;;4986367;28;20471;-76
2021/05/25 05:42:15;;;;;;;0.43;0.43;;;;;;;;;;4983693;28;20476;-76
2021/05/25 05:44:41;;;;;;;1.17;0.50;;;;;;;;;;4974710;28;20451;-76
2021/05/25 05:47:07;;;;;;;0.70;0.50;;;;;;;;;;4976137;28;20808;-76
2021/05/25 05:49:33;;;;;;;0.50;0.50;;;;;;;;;;4957655;28;21338;-76
2021/05/25 05:51:59;;;;;;;0.40;0.40;;;;;;;;;;4955793;28;20449;-76
2021/05/25 05:54:25;;;;;;;1.10;0.70;;;;;;;;;;4973455;28;20820;-75
2021/05/25 05:56:51;;;;;;;0.40;0.40;;;;;;;;;;4971444;28;20437;-77
2021/05/25 05:59:19;;;;;;;0.40;0.40;;;;;;;;;;4961167;28;21172;-77
2021/05/25 06:01:45;;;;;;;1.80;0.50;;;;;;;;;;4966789;28;20839;-76
2021/05/25 06:04:11;;;;;;;0.40;0.40;;;;;;;;;;4972190;28;20456;-76
2021/05/25 06:06:37;;;;;;;0.50;0.50;;;;;;;;;;4986745;28;20441;-76
2021/05/25 06:09:04;;;;;;;0.73;0.60;;;;;;;;;;4984806;28;20475;-77
2021/05/25 06:11:30;;;;;;;0.43;0.43;;;;;;;;;;4981806;28;20477;-76
2021/05/25 06:13:57;;;;;;;2.30;0.60;;;;;;;;;;4980180;28;20517;-76
2021/05/25 06:16:23;;;;;;;0.40;0.40;;;;;;;;;;4974032;28;20476;-76
2021/05/25 06:18:49;;;;;;;0.40;0.40;;;;;;;;;;4973899;28;20524;-76
2021/05/25 06:21:16;;;;;;;3.23;1.53;;;;;;;;;;4975162;28;20462;-76
2021/05/25 06:23:42;;;;;;;0.60;0.60;;;;;;;;;;4979847;28;20452;-76
2021/05/25 06:26:08;;;;;;;0.30;0.30;;;;;;;;;;4957618;28;20468;-76
2021/05/25 06:28:34;;;;;;;0.50;0.50;;;;;;;;;;4960425;28;20457;-76
2021/05/25 06:31:00;;;;;;;0.57;0.57;;;;;;;;;;4973998;28;21217;-76
2021/05/25 06:33:27;;;;;;;1.47;0.60;;;;;;;;;;4972808;28;20434;-76
2021/05/25 06:35:53;;;;;;;0.60;0.40;;;;;;;;;;4959226;28;20436;-76
2021/05/25 06:38:19;;;;;;;0.40;0.40;;;;;;;;;;4960248;28;21049;-75
2021/05/25 06:40:46;;;;;;;0.53;0.53;;;;;;;;;;4981258;28;20458;-75
2021/05/25 06:43:12;;;;;;;0.40;0.40;;;;;;;;;;4977266;28;20471;-75
2021/05/25 06:45:38;;;;;;;1.40;0.43;;;;;;;;;;4953846;28;20433;-75
2021/05/25 06:48:05;;;;;;;0.40;0.40;;;;;;;;;;4983030;28;20571;-76
2021/05/25 06:50:31;;;;;;;0.40;0.40;;;;;;;;;;4981042;28;20473;-75
2021/05/25 06:52:57;;;;;;;0.50;0.50;;;;;;;;;;4965692;28;20481;-76
2021/05/25 06:55:23;;;;;;;0.30;0.30;;;;;;;;;;4981477;28;20446;-76
2021/05/25 06:57:49;;;;;;;0.50;0.50;;;;;;;;;;4980185;28;20460;-76
2021/05/25 07:00:16;;;;;;;1.73;0.50;;;;;;;;;;4981032;28;20552;-76
2021/05/25 07:02:42;;;;;;;0.63;0.63;;;;;;;;;;4955421;28;20570;-76
2021/05/25 07:05:09;;;;;;;3.30;0.63;;;;;;;;;;4961855;28;20445;-76
2021/05/25 07:07:35;;;;;;;0.80;0.77;;;;;;;;;;4970885;28;20858;-76
2021/05/25 07:10:02;;;;;;;0.70;0.70;;;;;;;;;;4956609;28;20461;-76
2021/05/25 07:12:28;;;;;;;0.63;0.50;;;;;;;;;;4967749;28;20452;-76
2021/05/25 07:14:54;;;;;;;0.83;0.67;;;;;;;;;;4958784;28;20442;-76
2021/05/25 07:17:20;;;;;;;0.43;0.43;;;;;;;;;;4970185;28;20825;-77
2021/05/25 07:19:46;;;;;;;1.93;0.70;;;;;;;;;;4970873;28;20456;-76
2021/05/25 07:22:12;;;;;;;0.73;0.73;;;;;;;;;;4952751;28;20822;-76
2021/05/25 07:24:38;;;;;;;0.60;0.60;;;;;;;;;;4966046;28;20468;-76
2021/05/25 07:27:05;;;;;;;0.83;0.83;;;;;;;;;;4962652;28;21106;-76
2021/05/25 07:29:31;;;;;;;0.50;0.50;;;;;;;;;;4964190;28;20901;-76
2021/05/25 07:31:57;;;;;;;0.40;0.40;;;;;;;;;;4966173;28;20558;-76
2021/05/25 07:34:23;;;;;;;0.57;0.50;;;;;;;;;;4966559;28;20552;-77
2021/05/25 07:36:49;;;;;;;0.57;0.57;;;;;;;;;;4967024;28;20438;-76
2021/05/25 07:39:16;;;;;;;0.80;0.50;;;;;;;;;;4971184;28;20449;-76
2021/05/25 07:41:42;;;;;;;0.63;0.47;;;;;;;;;;4968508;28;20473;-76
2021/05/25 07:44:08;;;;;;;0.53;0.53;;;;;;;;;;4969417;28;20455;-76
2021/05/25 07:46:34;;;;;;;1.03;0.63;;;;;;;;;;4967346;28;20445;-75
2021/05/25 07:49:00;;;;;;;0.67;0.50;;;;;;;;;;4952202;28;20986;-77
2021/05/25 07:51:29;;;;;;;0.57;0.57;;;;;;;;;;4980739;28;20477;-76
2021/05/25 07:53:55;;;;;;;0.60;0.60;;;;;;;;;;4971551;28;20446;-77
2021/05/25 07:56:21;;;;;;;0.90;0.67;;;;;;;;;;4977386;28;20450;-77
2021/05/25 07:58:47;;;;;;;0.60;0.60;;;;;;;;;;4960604;28;20442;-76
2021/05/25 08:01:13;;;;;;;0.60;0.60;;;;;;;;;;4973262;28;20485;-76
2021/05/25 08:03:40;;;;;;;0.50;0.50;;;;;;;;;;4962516;28;20457;-76
2021/05/25 08:06:06;;;;;;;0.40;0.40;;;;;;;;;;4962190;28;20437;-77
2021/05/25 08:08:32;;;;;;;0.83;0.53;;;;;;;;;;4976362;28;20465;-77
2021/05/25 08:10:58;;;;;;;0.30;0.30;;;;;;;;;;4958019;28;21014;-76
2021/05/25 08:13:25;;;;;;;1.33;0.60;;;;;;;;;;4966032;28;20540;-76
2021/05/25 08:15:52;;;;;;;1.03;0.40;;;;;;;;;;4973850;28;20939;-76
2021/05/25 08:18:42;;;;;;;1.00;1.00;;;;;;;;;;4974054;28;20441;-76
2021/05/25 08:21:08;;;;;;;0.43;0.43;;;;;;;;;;4973768;28;21252;-76
2021/05/25 08:23:34;;;;;;;0.50;0.40;;;;;;;;;;4957080;28;20448;-76
2021/05/25 08:26:04;;;;;;;0.70;0.60;;;;;;;;;;4973411;28;20447;-76
2021/05/25 08:28:30;;;;;;;0.50;0.50;;;;;;;;;;4982562;28;21177;-76
2021/05/25 08:30:56;;;;;;;0.70;0.50;;;;;;;;;;4954989;28;20442;-76
2021/05/25 08:33:22;;;;;;;0.60;0.60;;;;;;;;;;4974501;28;20533;-76
2021/05/25 08:35:49;;;;;;;0.47;0.47;;;;;;;;;;4976806;28;20436;-77
2021/05/25 08:38:19;;;;;;;0.40;0.40;;;;;;;;;;4957580;28;20480;-75
2021/05/25 08:40:46;;;;;;;0.57;0.40;;;;;;;;;;4975777;28;20461;-76
2021/05/25 08:43:12;;;;;;;1.17;0.57;;;;;;;;;;4955154;28;20441;-77
2021/05/25 08:45:38;;;;;;;0.43;0.40;;;;;;;;;;4958578;28;20445;-78
2021/05/25 08:48:04;;;;;;;0.50;0.50;;;;;;;;;;4972333;28;20481;-76
2021/05/25 08:50:30;;;;;;;0.40;0.40;;;;;;;;;;4959644;28;20507;-77
2021/05/25 08:53:01;;;;;;;0.40;0.40;;;;;;;;;;4955342;28;20799;-75
2021/05/25 08:55:28;;;;;;;0.40;0.40;;;;;;;;;;4961664;28;20445;-77
2021/05/25 08:57:55;;;;;;;0.40;0.40;;;;;;;;;;4982654;28;20826;-77
2021/05/25 09:00:21;;;;;;;0.40;0.40;;;;;;;;;;4977802;28;20460;-76
2021/05/25 09:02:47;;;;;;;0.53;0.50;;;;;;;;;;4967116;28;20441;-76
2021/05/25 09:05:15;;;;;;;0.40;0.40;;;;;;;;;;4969953;28;20473;-76
2021/05/25 09:07:43;;;;;;;0.90;0.37;;;;;;;;;;4956460;28;20484;-76
2021/05/25 09:13:03;;;;;;;0.40;0.40;;;;;;;;;;4982674;28;20443;-76
2021/05/25 09:15:30;;;;;;;0.50;0.50;;;;;;;;;;4981011;28;20472;-76
2021/05/25 09:18:06;;;;;;;0.50;0.50;;;;;;;;;;4980105;28;20452;-76
2021/05/25 09:20:48;;;;;;;0.30;0.30;;;;;;;;;;4961448;28;20461;-76
2021/05/25 09:23:24;;;;;;;0.40;0.40;;;;;;;;;;4968103;28;20443;-75
2021/05/25 09:26:05;;;;;;;0.40;0.40;;;;;;;;;;4975348;28;20958;-76
2021/05/25 09:28:31;;;;;;;0.60;0.40;;;;;;;;;;4976995;28;20464;-76
2021/05/25 09:30:58;;;;;;;0.43;0.43;;;;;;;;;;4961965;28;20493;-77
2021/05/25 09:33:24;;;;;;;0.40;0.40;;;;;;;;;;4961819;28;20445;-76
2021/05/25 09:35:52;;;;;;;0.50;0.50;;;;;;;;;;4972550;28;20533;-77
2021/05/25 09:38:18;;;;;;;1.53;0.60;;;;;;;;;;4960974;28;20450;-76
2021/05/25 09:40:48;;;;;;;0.73;0.50;;;;;;;;;;4961464;28;20500;-76
2021/05/25 09:43:25;;;;;;;0.43;0.43;;;;;;;;;;4979049;28;21091;-77
2021/05/25 09:45:56;;;;;;;0.40;0.40;;;;;;;;;;4962824;28;20444;-75
2021/05/25 09:48:25;;;;;;;0.40;0.40;;;;;;;;;;4977930;28;20477;-76
2021/05/25 09:50:54;;;;;;;0.40;0.40;;;;;;;;;;4972131;28;20471;-77
2021/05/25 09:53:21;;;;;;;0.60;0.60;;;;;;;;;;4983871;28;20456;-76
2021/05/25 09:55:47;;;;;;;0.83;0.70;;;;;;;;;;4964467;28;20433;-78
2021/05/25 09:58:13;;;;;;;0.40;0.40;;;;;;;;;;4974703;28;20865;-77
2021/05/25 10:00:40;;;;;;;0.53;0.53;;;;;;;;;;4978985;28;20461;-77
2021/05/25 10:03:13;;;;;;;2.27;0.80;;;;;;;;;;4971127;28;20442;-77
2021/05/25 10:05:39;;;;;;;1.60;0.60;;;;;;;;;;4967722;28;20474;-76
2021/05/25 10:08:06;;;;;;;0.40;0.40;;;;;;;;;;4974090;28;20480;-75
2021/05/25 10:10:33;;;;;;;0.40;0.40;;;;;;;;;;4979464;28;21049;-76
2021/05/25 10:12:59;;;;;;;0.60;0.50;;;;;;;;;;4974051;28;20447;-76
2021/05/25 10:15:26;;;;;;;0.70;0.60;;;;;;;;;;4973766;28;20943;-76
2021/05/25 10:20:26;;;;;;;0.60;0.50;;;;;;;;;;4984637;28;20475;-76
2021/05/25 10:22:52;;;;;;;1.90;0.40;;;;;;;;;;4977437;28;20429;-76
2021/05/25 10:25:19;;;;;;;0.40;0.40;;;;;;;;;;4973090;28;20820;-75
2021/05/25 10:27:46;;;;;;;0.70;0.43;;;;;;;;;;4970417;28;20960;-76
2021/05/25 10:30:22;;;;;;;0.40;0.40;;;;;;;;;;4975323;28;20457;-75
2021/05/25 10:32:48;;;;;;;0.93;0.47;;;;;;;;;;4956409;28;20440;-76
2021/05/25 10:35:19;;;;;;;0.80;0.40;;;;;;;;;;4978861;28;21246;-76
2021/05/25 10:38:04;;;;;;;0.80;0.43;;;;;;;;;;4975877;28;20463;-76
2021/05/25 10:40:40;;;;;;;0.40;0.40;;;;;;;;;;4977797;28;20468;-76
2021/05/25 10:43:25;;;;;;;0.40;0.40;;;;;;;;;;4970054;28;20540;-75
2021/05/25 10:45:51;;;;;;;0.50;0.30;;;;;;;;;;4977103;28;20476;-76
2021/05/25 10:48:19;;;;;;;0.40;0.40;;;;;;;;;;4968710;28;20572;-75
2021/05/25 10:50:52;;;;;;;0.47;0.47;;;;;;;;;;4975688;28;21026;-75
2021/05/25 10:53:23;;;;;;;0.50;0.40;;;;;;;;;;4978970;28;20437;-75
2021/05/25 10:55:49;;;;;;;0.40;0.40;;;;;;;;;;4986916;28;20438;-76
2021/05/25 10:58:19;;;;;;;0.40;0.40;;;;;;;;;;4976213;28;20974;-75
2021/05/25 11:00:45;;;;;;;0.40;0.40;;;;;;;;;;4972185;28;21537;-75
2021/05/25 11:03:11;;;;;;;0.77;0.40;;;;;;;;;;4957906;28;21036;-76
2021/05/25 11:05:37;;;;;;;0.57;0.57;;;;;;;;;;4973168;28;20449;-75
2021/05/25 11:08:13;;;;;;;0.40;0.40;;;;;;;;;;4960495;28;20489;-74
2021/05/25 11:10:40;;;;;;;0.40;0.40;;;;;;;;;;4958989;28;21093;-76
2021/05/25 11:16:01;;;;;;;0.43;0.43;;;;;;;;;;4977496;28;20780;-76
2021/05/25 11:21:33;;;;;;;0.40;0.40;;;;;;;;;;4976816;28;20460;-76
2021/05/25 11:23:59;;;;;;;0.40;0.40;;;;;;;;;;4973186;28;20576;-75
2021/05/25 11:26:44;;;;;;;0.30;0.30;;;;;;;;;;4954468;28;20477;-76
2021/05/25 11:29:19;;;;;;;0.50;0.50;;;;;;;;;;4976545;28;20934;-76
2021/05/25 11:31:46;;;;;;;0.40;0.40;;;;;;;;;;4973082;28;20504;-76
2021/05/25 11:34:12;;;;;;;0.40;0.40;;;;;;;;;;4975062;28;20932;-75
2021/05/25 11:36:38;;;;;;;0.43;0.40;;;;;;;;;;4975548;28;20492;-74
2021/05/25 11:39:08;;;;;;;0.33;0.33;;;;;;;;;;4977064;28;20529;-75
2021/05/25 11:41:35;;;;;;;0.40;0.40;;;;;;;;;;4980151;28;20583;-74
2021/05/25 11:44:09;;;;;;;0.50;0.50;;;;;;;;;;4954462;28;20445;-74
2021/05/25 11:46:39;;;;;;;0.50;0.50;;;;;;;;;;4957762;28;20473;-76
2021/05/25 11:49:09;;;;;;;0.60;0.60;;;;;;;;;;4970416;28;20585;-76
2021/05/25 11:51:35;;;;;;;0.50;0.50;;;;;;;;;;4982281;28;20547;-76
2021/05/25 11:54:11;;;;;;;0.47;0.47;;;;;;;;;;4966620;28;20889;-76
2021/05/25 11:56:37;;;;;;;1.00;0.60;;;;;;;;;;4960423;28;20958;-76
2021/05/25 11:59:04;;;;;;;1.43;0.50;;;;;;;;;;4973506;28;20437;-75
2021/05/25 12:02:02;;;;;;;0.40;0.40;;;;;;;;;;4966151;28;20457;-75
2021/05/25 12:04:31;;;;;;;0.70;0.60;;;;;;;;;;4941442;28;20445;-75
2021/05/25 12:07:00;;;;;;;0.60;0.60;;;;;;;;;;4958045;28;20442;-76
2021/05/25 12:09:27;;;;;;;0.50;0.50;;;;;;;;;;4972719;28;20469;-75
2021/05/25 12:12:08;;;;;;;0.40;0.40;;;;;;;;;;4975446;28;20429;-75
2021/05/25 12:14:34;;;;;;;0.50;0.50;;;;;;;;;;4955879;28;20986;-75
2021/05/25 12:17:03;;;;;;;0.50;0.50;;;;;;;;;;4958174;28;21095;-75
2021/05/25 12:19:29;;;;;;;0.40;0.40;;;;;;;;;;4973608;28;20441;-75
2021/05/25 12:22:01;;;;;;;0.50;0.50;;;;;;;;;;4975954;28;20439;-75
2021/05/25 12:24:29;;;;;;;0.93;0.77;;;;;;;;;;4980908;28;20432;-74
2021/05/25 12:26:56;;;;;;;0.40;0.40;;;;;;;;;;4980849;28;20520;-76
2021/05/25 12:29:22;;;;;;;0.60;0.60;;;;;;;;;;4958030;28;20472;-75
2021/05/25 12:31:49;;;;;;;0.40;0.40;;;;;;;;;;4967732;28;20462;-76
2021/05/25 12:34:18;;;;;;;0.50;0.50;;;;;;;;;;4985949;28;20440;-75
2021/05/25 12:36:51;;;;;;;0.93;0.73;;;;;;;;;;4969200;28;20520;-75
2021/05/25 12:39:31;;;;;;;0.93;0.60;;;;;;;;;;4965626;28;20448;-75
2021/05/25 12:41:57;;;;;;;0.60;0.60;;;;;;;;;;4962476;28;20445;-75
2021/05/25 12:44:31;;;;;;;1.17;0.67;;;;;;;;;;4976521;28;20450;-76
2021/05/25 12:47:00;;;;;;;0.40;0.40;;;;;;;;;;4970283;28;20454;-75
2021/05/25 12:49:30;;;;;;;0.60;0.60;;;;;;;;;;4974728;28;20530;-74
2021/05/25 12:52:14;;;;;;;0.40;0.40;;;;;;;;;;4981967;28;20437;-76
2021/05/25 12:54:50;;;;;;;0.70;0.70;;;;;;;;;;4979217;28;20440;-74
2021/05/25 12:57:16;;;;;;;0.50;0.50;;;;;;;;;;4984049;28;20922;-75
2021/05/25 12:59:42;;;;;;;0.60;0.50;;;;;;;;;;4987497;28;20445;-75
2021/05/25 13:02:08;;;;;;;0.60;0.60;;;;;;;;;;4960038;28;20458;-75
2021/05/25 13:04:34;;;;;;;1.00;0.60;;;;;;;;;;4966408;28;20436;-75
2021/05/25 13:07:07;;;;;;;2.83;1.10;;;;;;;;;;4975785;28;20532;-75
2021/05/25 13:12:04;;;;;;;0.60;0.60;;;;;;;;;;4972340;28;20449;-75
2021/05/25 13:14:31;;;;;;;1.27;0.70;;;;;;;;;;4960335;28;20492;-74
2021/05/25 13:17:00;;;;;;;1.03;0.77;;;;;;;;;;4977401;28;20436;-75
2021/05/25 13:19:38;;;;;;;1.10;0.50;;;;;;;;;;4963482;28;20432;-74
2021/05/25 13:22:05;;;;;;;0.50;0.50;;;;;;;;;;4965884;28;20437;-75
2021/05/25 13:24:31;;;;;;;1.17;0.90;;;;;;;;;;4975666;28;20437;-75
2021/05/25 13:26:57;;;;;;;0.70;0.53;;;;;;;;;;4951446;28;20548;-75
2021/05/25 13:29:23;;;;;;;0.50;0.50;;;;;;;;;;4962542;28;20842;-75
2021/05/25 13:31:50;;;;;;;1.37;0.67;;;;;;;;;;4961443;28;20469;-75
2021/05/25 13:34:21;;;;;;;0.60;0.60;;;;;;;;;;4975965;28;20532;-75
2021/05/25 13:36:49;;;;;;;0.40;0.40;;;;;;;;;;4976649;28;20445;-75
2021/05/25 13:39:15;;;;;;;1.07;0.60;;;;;;;;;;4959902;28;20968;-75
2021/05/25 13:41:43;;;;;;;0.60;0.60;;;;;;;;;;4978218;28;20520;-75
2021/05/25 13:44:09;;;;;;;0.83;0.63;;;;;;;;;;4977654;28;20468;-74
2021/05/25 13:46:36;;;;;;;2.13;0.70;;;;;;;;;;4975473;28;20468;-75
2021/05/25 13:49:03;;;;;;;0.60;0.60;;;;;;;;;;4961345;28;20476;-75
2021/05/25 13:51:29;;;;;;;0.47;0.47;;;;;;;;;;4977241;28;20516;-74
2021/05/25 13:53:59;;;;;;;1.23;0.73;;;;;;;;;;4962493;28;20446;-75
2021/05/25 13:56:33;;;;;;;0.63;0.60;;;;;;;;;;4974026;28;21098;-75
2021/05/25 13:59:03;;;;;;;0.53;0.53;;;;;;;;;;4960018;28;20536;-76
2021/05/25 14:01:30;;;;;;;0.70;0.70;;;;;;;;;;4979064;28;20466;-76
2021/05/25 14:03:56;;;;;;;0.43;0.43;;;;;;;;;;4972817;28;20445;-75
2021/05/25 14:06:22;;;;;;;1.13;0.90;;;;;;;;;;4981534;28;20456;-75
2021/05/25 14:08:49;;;;;;;1.07;0.60;;;;;;;;;;4969190;28;21054;-75
2021/05/25 14:11:15;;;;;;;0.77;0.77;;;;;;;;;;4973113;28;20893;-75
2021/05/25 14:13:41;;;;;;;1.73;0.67;;;;;;;;;;4981046;28;20442;-74
2021/05/25 14:16:08;;;;;;;0.50;0.50;;;;;;;;;;4977846;28;20445;-75
2021/05/25 14:18:34;;;;;;;0.60;0.60;;;;;;;;;;4970895;28;20470;-74
2021/05/25 14:21:01;;;;;;;0.60;0.60;;;;;;;;;;4951483;28;20466;-74
2021/05/25 14:23:27;;;;;;;0.80;0.80;;;;;;;;;;4971830;28;20486;-75
2021/05/25 14:25:53;;;;;;;0.97;0.83;;;;;;;;;;4963131;28;20584;-75
2021/05/25 14:28:21;;;;;;;2.00;0.60;;;;;;;;;;4982921;28;20551;-75
2021/05/25 14:30:47;;;;;;;2.47;1.13;;;;;;;;;;4975373;28;20456;-75
2021/05/25 14:33:16;;;;;;;0.70;0.60;;;;;;;;;;4984824;28;20440;-76
2021/05/25 14:35:42;;;;;;;0.80;0.80;;;;;;;;;;4949039;28;20442;-74
2021/05/25 14:38:08;;;;;;;1.57;0.80;;;;;;;;;;4955850;28;20828;-74
2021/05/25 14:40:34;;;;;;;0.90;0.87;;;;;;;;;;4955843;28;20484;-75
2021/05/25 14:43:00;;;;;;;0.70;0.63;;;;;;;;;;4969440;28;20477;-77
2021/05/25 14:45:26;;;;;;;0.80;0.63;;;;;;;;;;4977785;28;20436;-77
2021/05/25 14:47:53;;;;;;;0.83;0.60;;;;;;;;;;4972605;28;21125;-77
2021/05/25 14:50:28;;;;;;;0.80;0.50;;;;;;;;;;4971551;28;20483;-73
2021/05/25 14:53:08;;;;;;;0.50;0.50;;;;;;;;;;4975248;28;20484;-74
2021/05/25 14:55:35;;;;;;;0.57;0.57;;;;;;;;;;4972357;28;20442;-74
2021/05/25 14:58:02;;;;;;;0.87;0.87;;;;;;;;;;4969928;28;20473;-73
2021/05/25 15:00:31;;;;;;;1.33;0.80;;;;;;;;;;4987269;28;20505;-74
2021/05/25 15:03:13;;;;;;;0.53;0.53;;;;;;;;;;4973676;28;20488;-74